Time;durP1;ratioP1;P1;durP2;ratioP2;P2;SDS_P1;SDS_P2;PMS_P1;PMS_P2;Temp;Humidity;BMP_temperature;BMP_pressure;BME280_temperature;BME280_humidity;BME280_pressure;Samples;Min_cycle;Max_cycle;Signal;HPM_P1;HPM_P2
2024/01/22 06:03:18;;;;;;;13.03;5.93;;;;;;;;;;4971280;28;20474;-73
2024/01/22 06:05:45;;;;;;;12.07;5.80;;;;;;;;;;4978710;28;20838;-72
2024/01/22 06:08:11;;;;;;;11.60;6.00;;;;;;;;;;4972997;28;20463;-72
2024/01/22 06:10:37;;;;;;;13.47;6.40;;;;;;;;;;4969073;28;20436;-72
2024/01/22 06:13:03;;;;;;;19.73;8.03;;;;;;;;;;4955451;29;20924;-72
2024/01/22 06:15:29;;;;;;;14.07;5.80;;;;;;;;;;4954212;29;20901;-76
2024/01/22 06:17:55;;;;;;;13.53;6.50;;;;;;;;;;4954588;28;20518;-72
2024/01/22 06:20:21;;;;;;;13.17;6.90;;;;;;;;;;4957970;28;20424;-74
2024/01/22 06:22:47;;;;;;;10.50;6.10;;;;;;;;;;4957142;29;20423;-75
2024/01/22 06:25:13;;;;;;;12.03;6.30;;;;;;;;;;4957276;29;20452;-75
2024/01/22 06:27:39;;;;;;;15.57;6.80;;;;;;;;;;4959127;29;20788;-77
2024/01/22 06:30:06;;;;;;;21.43;7.77;;;;;;;;;;4958622;29;20500;-76
2024/01/22 06:32:33;;;;;;;17.13;6.50;;;;;;;;;;4958999;29;20932;-77
2024/01/22 06:34:59;;;;;;;16.10;6.40;;;;;;;;;;4957619;29;20463;-73
2024/01/22 06:37:25;;;;;;;15.00;7.30;;;;;;;;;;4957466;29;20507;-75
2024/01/22 06:39:51;;;;;;;16.05;7.38;;;;;;;;;;4956397;29;20447;-76
2024/01/22 06:42:17;;;;;;;10.03;6.17;;;;;;;;;;4956445;28;20556;-74
2024/01/22 06:44:43;;;;;;;17.93;7.97;;;;;;;;;;4956566;29;20935;-72
2024/01/22 06:47:09;;;;;;;10.90;5.70;;;;;;;;;;4956659;28;20452;-72
2024/01/22 06:49:35;;;;;;;10.20;5.80;;;;;;;;;;4956645;29;20421;-73
2024/01/22 06:52:01;;;;;;;10.87;5.50;;;;;;;;;;4957069;29;20830;-71
2024/01/22 06:54:27;;;;;;;12.60;7.23;;;;;;;;;;4956004;29;20790;-74
2024/01/22 06:56:53;;;;;;;10.80;6.47;;;;;;;;;;4957121;28;20421;-72
2024/01/22 06:59:19;;;;;;;16.97;6.70;;;;;;;;;;4956288;29;20421;-72
2024/01/22 07:01:44;;;;;;;7.67;5.10;;;;;;;;;;4955360;29;20488;-73
2024/01/22 07:04:10;;;;;;;12.37;6.60;;;;;;;;;;4956136;28;20425;-72
2024/01/22 07:06:36;;;;;;;8.73;5.53;;;;;;;;;;4955799;29;20519;-74
2024/01/22 07:09:03;;;;;;;16.40;7.00;;;;;;;;;;4956340;29;20416;-73
2024/01/22 07:11:30;;;;;;;10.20;5.73;;;;;;;;;;4957252;28;21092;-72
2024/01/22 07:13:55;;;;;;;11.03;6.20;;;;;;;;;;4971830;28;20494;-74
2024/01/22 07:16:22;;;;;;;12.17;5.50;;;;;;;;;;4957451;28;20519;-74
2024/01/22 07:18:48;;;;;;;11.63;5.40;;;;;;;;;;4955865;29;20420;-73
2024/01/22 07:21:13;;;;;;;10.83;5.53;;;;;;;;;;4962149;29;20444;-75
2024/01/22 07:23:39;;;;;;;11.33;4.87;;;;;;;;;;4967592;29;20432;-75
2024/01/22 07:26:06;;;;;;;10.50;5.80;;;;;;;;;;4969900;29;20449;-74
2024/01/22 07:28:32;;;;;;;28.47;9.47;;;;;;;;;;4955594;28;20950;-76
2024/01/22 07:30:58;;;;;;;24.70;11.40;;;;;;;;;;4941055;28;20441;-76
2024/01/22 07:33:24;;;;;;;13.37;6.70;;;;;;;;;;4950315;29;20776;-77
2024/01/22 07:35:50;;;;;;;10.27;5.43;;;;;;;;;;4959628;29;20416;-77
2024/01/22 07:38:16;;;;;;;12.45;5.30;;;;;;;;;;4955101;29;20420;-75
2024/01/22 07:40:42;;;;;;;18.90;6.10;;;;;;;;;;4969597;28;20188;-74
2024/01/22 07:43:08;;;;;;;13.07;5.93;;;;;;;;;;4956498;29;20412;-72
2024/01/22 07:45:35;;;;;;;14.67;5.60;;;;;;;;;;4964932;29;20469;-72
2024/01/22 07:48:01;;;;;;;9.53;4.90;;;;;;;;;;4978683;28;20464;-75
2024/01/22 07:50:27;;;;;;;15.90;6.80;;;;;;;;;;4979659;28;20432;-74
2024/01/22 07:52:53;;;;;;;11.03;6.67;;;;;;;;;;4978898;28;20534;-75
2024/01/22 07:55:18;;;;;;;17.73;6.23;;;;;;;;;;4978498;28;20413;-75
2024/01/22 07:57:44;;;;;;;15.23;5.17;;;;;;;;;;4969925;29;20539;-74
2024/01/22 08:00:14;;;;;;;14.43;5.53;;;;;;;;;;4950771;28;20821;-75
2024/01/22 08:02:40;;;;;;;11.17;5.40;;;;;;;;;;4955569;29;20433;-75
2024/01/22 08:05:07;;;;;;;9.80;5.70;;;;;;;;;;4954158;29;20930;-75
2024/01/22 08:07:33;;;;;;;15.13;5.40;;;;;;;;;;4938187;29;20480;-74
2024/01/22 08:09:59;;;;;;;8.87;5.03;;;;;;;;;;4941889;29;20520;-74
2024/01/22 08:12:25;;;;;;;12.87;5.53;;;;;;;;;;4948853;29;20515;-74
2024/01/22 08:14:51;;;;;;;10.80;5.40;;;;;;;;;;4972478;29;20456;-73
2024/01/22 08:17:17;;;;;;;8.30;5.00;;;;;;;;;;4976915;29;20440;-73
2024/01/22 08:19:43;;;;;;;16.33;5.50;;;;;;;;;;4977039;29;20404;-74
2024/01/22 08:22:09;;;;;;;14.57;5.80;;;;;;;;;;4976582;28;20467;-73
2024/01/22 08:24:35;;;;;;;9.50;4.30;;;;;;;;;;4974820;29;20469;-73
2024/01/22 08:27:01;;;;;;;12.83;5.00;;;;;;;;;;4972721;29;20492;-74
2024/01/22 08:29:27;;;;;;;11.63;5.37;;;;;;;;;;4961038;29;20549;-73
2024/01/22 08:31:53;;;;;;;5.90;4.13;;;;;;;;;;4941808;29;20477;-74
2024/01/22 08:34:19;;;;;;;10.13;4.87;;;;;;;;;;4952801;29;20464;-73
2024/01/22 08:36:46;;;;;;;7.80;4.53;;;;;;;;;;4960792;29;20420;-74
2024/01/22 08:39:12;;;;;;;7.30;4.50;;;;;;;;;;4949495;29;20792;-77
2024/01/22 08:41:38;;;;;;;11.40;5.63;;;;;;;;;;4952027;29;20441;-74
2024/01/22 08:44:05;;;;;;;12.03;4.87;;;;;;;;;;4956610;29;20935;-76
2024/01/22 08:46:31;;;;;;;12.10;5.13;;;;;;;;;;4955505;29;20423;-73
2024/01/22 08:48:57;;;;;;;11.47;4.53;;;;;;;;;;4955323;29;20471;-73
2024/01/22 08:51:23;;;;;;;13.87;5.13;;;;;;;;;;4953132;28;20570;-72
2024/01/22 08:53:49;;;;;;;13.83;5.60;;;;;;;;;;4941111;29;20421;-73
2024/01/22 08:56:15;;;;;;;13.33;4.80;;;;;;;;;;4953051;29;20420;-72
2024/01/22 08:58:41;;;;;;;10.23;3.93;;;;;;;;;;4954620;28;20429;-72
2024/01/22 09:01:07;;;;;;;21.40;4.67;;;;;;;;;;4947677;29;20437;-73
2024/01/22 09:03:33;;;;;;;7.00;3.90;;;;;;;;;;4945017;29;20451;-72
2024/01/22 09:06:00;;;;;;;8.53;3.40;;;;;;;;;;4954223;29;20909;-73
2024/01/22 09:08:26;;;;;;;7.43;3.70;;;;;;;;;;4955959;29;20523;-73
2024/01/22 09:10:52;;;;;;;10.83;3.67;;;;;;;;;;4944853;29;20438;-72
2024/01/22 09:13:18;;;;;;;3.90;2.60;;;;;;;;;;4947854;29;20440;-73
2024/01/22 09:15:44;;;;;;;6.93;3.27;;;;;;;;;;4936063;29;20414;-74
2024/01/22 09:18:10;;;;;;;6.43;2.63;;;;;;;;;;4952270;29;20480;-73
2024/01/22 09:20:36;;;;;;;8.60;3.10;;;;;;;;;;4960911;29;20440;-73
2024/01/22 09:23:02;;;;;;;3.00;2.60;;;;;;;;;;4961124;29;20425;-72
2024/01/22 09:25:28;;;;;;;5.77;2.50;;;;;;;;;;4972445;29;20413;-73
2024/01/22 09:27:54;;;;;;;4.20;2.90;;;;;;;;;;4962210;29;20491;-73
2024/01/22 09:30:20;;;;;;;3.60;2.40;;;;;;;;;;4967385;28;20420;-73
2024/01/22 09:32:46;;;;;;;7.43;2.77;;;;;;;;;;4961933;29;20421;-73
2024/01/22 09:35:14;;;;;;;5.40;2.60;;;;;;;;;;4961893;29;20412;-73
2024/01/22 09:37:40;;;;;;;5.60;2.60;;;;;;;;;;4960574;29;20436;-72
2024/01/22 09:40:07;;;;;;;4.53;2.40;;;;;;;;;;4959824;29;20513;-73
2024/01/22 09:42:33;;;;;;;2.47;1.87;;;;;;;;;;4954249;29;20429;-72
2024/01/22 09:45:00;;;;;;;2.00;1.60;;;;;;;;;;4947405;29;20457;-73
2024/01/22 09:47:27;;;;;;;3.70;1.63;;;;;;;;;;4939908;29;20463;-74
2024/01/22 09:49:53;;;;;;;4.73;2.07;;;;;;;;;;4954103;29;20419;-72
2024/01/22 09:52:19;;;;;;;3.37;1.80;;;;;;;;;;4953988;28;21114;-73
2024/01/22 09:54:45;;;;;;;3.67;1.90;;;;;;;;;;4957618;29;20433;-75
2024/01/22 09:57:16;;;;;;;7.33;1.97;;;;;;;;;;4950442;29;20999;-73
2024/01/22 09:59:43;;;;;;;3.20;1.30;;;;;;;;;;4942057;29;20556;-74
2024/01/22 10:02:11;;;;;;;2.00;1.10;;;;;;;;;;4940263;29;20461;-74
2024/01/22 10:04:37;;;;;;;1.30;0.97;;;;;;;;;;4940091;29;20457;-73
2024/01/22 10:07:04;;;;;;;1.83;1.10;;;;;;;;;;4939576;29;20956;-73
2024/01/22 10:09:30;;;;;;;5.13;1.17;;;;;;;;;;4956850;29;20433;-74
2024/01/22 10:11:56;;;;;;;1.60;1.40;;;;;;;;;;4962612;29;20459;-74
2024/01/22 10:14:35;;;;;;;1.57;1.30;;;;;;;;;;4963665;29;20420;-73
2024/01/22 10:17:16;;;;;;;1.60;1.20;;;;;;;;;;4966462;29;20526;-73
2024/01/22 10:19:44;;;;;;;2.10;1.20;;;;;;;;;;4970630;29;20520;-73
2024/01/22 10:22:10;;;;;;;1.47;1.20;;;;;;;;;;4972113;28;20846;-73
2024/01/22 10:24:39;;;;;;;1.07;1.00;;;;;;;;;;4961290;29;20449;-73
2024/01/22 10:27:14;;;;;;;3.97;1.97;;;;;;;;;;4948542;29;20457;-73
2024/01/22 10:29:40;;;;;;;2.93;1.33;;;;;;;;;;4961779;29;20439;-73
2024/01/22 10:32:06;;;;;;;1.37;1.00;;;;;;;;;;4961046;28;20440;-73
2024/01/22 10:34:43;;;;;;;1.50;1.17;;;;;;;;;;4959461;29;20516;-73
2024/01/22 10:37:10;;;;;;;0.97;0.90;;;;;;;;;;4959017;29;20427;-74
2024/01/22 10:39:37;;;;;;;1.03;0.90;;;;;;;;;;4959434;29;20783;-73
2024/01/22 10:42:16;;;;;;;1.07;1.07;;;;;;;;;;4959031;28;20444;-74
2024/01/22 10:44:43;;;;;;;1.40;1.30;;;;;;;;;;4959323;29;20432;-74
2024/01/22 10:47:11;;;;;;;1.43;0.90;;;;;;;;;;4957625;29;21007;-73
2024/01/22 10:49:37;;;;;;;2.03;1.10;;;;;;;;;;4959637;29;20448;-75
2024/01/22 10:52:03;;;;;;;2.47;1.50;;;;;;;;;;4958614;28;20475;-73
2024/01/22 10:54:30;;;;;;;2.50;1.20;;;;;;;;;;4956356;29;20413;-73
2024/01/22 10:57:15;;;;;;;1.60;1.10;;;;;;;;;;4954883;29;20420;-73
2024/01/22 10:59:46;;;;;;;1.33;1.10;;;;;;;;;;4939138;29;20471;-74
2024/01/22 11:02:22;;;;;;;1.43;1.07;;;;;;;;;;4959713;28;20461;-74
2024/01/22 11:04:49;;;;;;;3.23;1.80;;;;;;;;;;4958981;29;20420;-73
2024/01/22 11:07:17;;;;;;;2.37;1.70;;;;;;;;;;4957754;29;20532;-73
2024/01/22 11:09:43;;;;;;;4.00;2.10;;;;;;;;;;4957720;29;20432;-73
2024/01/22 11:12:10;;;;;;;2.50;1.40;;;;;;;;;;4957616;28;20442;-74
2024/01/22 11:14:37;;;;;;;1.70;1.20;;;;;;;;;;4957848;29;20424;-74
2024/01/22 11:17:04;;;;;;;2.53;1.43;;;;;;;;;;4954070;29;20421;-74
2024/01/22 11:19:30;;;;;;;3.13;1.60;;;;;;;;;;4946456;29;20428;-74
2024/01/22 11:21:56;;;;;;;3.40;1.37;;;;;;;;;;4957234;29;20834;-72
2024/01/22 11:24:22;;;;;;;1.60;1.10;;;;;;;;;;4944732;29;20425;-74
2024/01/22 11:26:51;;;;;;;1.10;1.10;;;;;;;;;;4938038;29;20953;-73
2024/01/22 11:29:22;;;;;;;1.27;0.90;;;;;;;;;;4952208;29;20409;-72
2024/01/22 11:31:48;;;;;;;2.50;1.30;;;;;;;;;;4956938;28;20439;-73
2024/01/22 11:34:14;;;;;;;1.07;1.00;;;;;;;;;;4956821;29;20478;-74
2024/01/22 11:36:49;;;;;;;1.73;1.20;;;;;;;;;;4941573;29;20422;-73
2024/01/22 11:39:41;;;;;;;1.73;1.30;;;;;;;;;;4962152;29;20424;-73
2024/01/22 11:42:07;;;;;;;1.37;1.10;;;;;;;;;;4973531;28;20428;-73
2024/01/22 11:44:40;;;;;;;3.33;1.10;;;;;;;;;;4966843;29;20421;-75
2024/01/22 11:47:10;;;;;;;1.63;1.20;;;;;;;;;;4958585;29;20467;-77
2024/01/22 11:49:39;;;;;;;1.80;1.50;;;;;;;;;;4961018;29;20413;-75
2024/01/22 11:52:18;;;;;;;2.13;1.50;;;;;;;;;;4957069;28;20464;-76
2024/01/22 11:54:56;;;;;;;2.60;1.10;;;;;;;;;;4956897;29;20987;-76
2024/01/22 11:57:23;;;;;;;5.03;1.40;;;;;;;;;;4957009;29;20424;-76
2024/01/22 11:59:59;;;;;;;4.10;2.07;;;;;;;;;;4955651;29;20436;-75
2024/01/22 12:02:25;;;;;;;1.53;1.07;;;;;;;;;;4953290;28;20552;-73
2024/01/22 12:05:00;;;;;;;2.03;1.20;;;;;;;;;;4953453;29;20456;-73
2024/01/22 12:07:45;;;;;;;1.30;1.30;;;;;;;;;;4958506;29;20488;-74
2024/01/22 12:10:21;;;;;;;3.80;1.77;;;;;;;;;;4958615;28;20412;-73
2024/01/22 12:12:52;;;;;;;1.70;1.40;;;;;;;;;;4956800;29;20504;-74
2024/01/22 12:15:18;;;;;;;1.63;1.27;;;;;;;;;;5018445;23;20524;-73
2024/01/22 12:17:44;;;;;;;7.93;1.90;;;;;;;;;;4953367;29;20523;-74
2024/01/22 12:20:10;;;;;;;2.53;1.63;;;;;;;;;;4954573;28;20424;-75
2024/01/22 12:22:36;;;;;;;1.33;1.00;;;;;;;;;;4954478;28;20416;-74
2024/01/22 12:25:09;;;;;;;1.47;1.27;;;;;;;;;;4954046;28;20443;-75
2024/01/22 12:27:36;;;;;;;1.67;1.10;;;;;;;;;;4954127;28;20500;-74
2024/01/22 12:30:03;;;;;;;2.10;1.27;;;;;;;;;;4952995;29;20982;-75
2024/01/22 12:32:29;;;;;;;1.10;0.87;;;;;;;;;;4952481;28;20420;-75
2024/01/22 12:34:59;;;;;;;1.10;0.90;;;;;;;;;;4953907;28;20804;-76
2024/01/22 12:37:27;;;;;;;2.80;1.10;;;;;;;;;;4936237;28;20538;-75
2024/01/22 12:40:26;;;;;;;2.60;1.20;;;;;;;;;;4937376;28;20945;-75
2024/01/22 12:42:59;;;;;;;1.47;1.03;;;;;;;;;;4942477;29;20436;-75
2024/01/22 12:45:26;;;;;;;2.60;1.20;;;;;;;;;;4938169;29;20473;-74
2024/01/22 12:47:52;;;;;;;0.93;0.83;;;;;;;;;;4934731;29;20803;-76
2024/01/22 12:50:18;;;;;;;2.67;1.60;;;;;;;;;;4951582;28;20433;-74
2024/01/22 12:52:44;;;;;;;3.10;1.43;;;;;;;;;;4952449;28;20473;-73
2024/01/22 12:55:14;;;;;;;1.23;1.13;;;;;;;;;;4939909;28;20449;-76
2024/01/22 12:57:40;;;;;;;1.23;1.20;;;;;;;;;;4935132;29;20464;-77
2024/01/22 13:00:06;;;;;;;2.20;1.00;;;;;;;;;;4943291;29;20440;-77
2024/01/22 13:02:32;;;;;;;1.83;1.33;;;;;;;;;;4951516;29;20912;-75
2024/01/22 13:04:59;;;;;;;2.33;1.17;;;;;;;;;;4952366;28;20456;-75
2024/01/22 13:07:25;;;;;;;1.50;1.20;;;;;;;;;;4952242;29;20464;-75
2024/01/22 13:09:51;;;;;;;6.63;1.17;;;;;;;;;;4954059;28;20423;-74
2024/01/22 13:12:17;;;;;;;2.20;1.00;;;;;;;;;;4956471;28;20405;-77
2024/01/22 13:14:44;;;;;;;1.30;1.20;;;;;;;;;;4948688;29;20449;-77
2024/01/22 13:17:11;;;;;;;2.40;1.43;;;;;;;;;;4936387;29;20417;-76
2024/01/22 13:19:37;;;;;;;2.33;1.60;;;;;;;;;;4945797;29;20801;-76
2024/01/22 13:22:04;;;;;;;2.80;1.40;;;;;;;;;;4953721;28;20511;-76
2024/01/22 13:24:30;;;;;;;4.03;1.53;;;;;;;;;;4952246;28;20429;-76
2024/01/22 13:27:02;;;;;;;2.37;1.57;;;;;;;;;;4956775;28;20452;-72
2024/01/22 13:29:28;;;;;;;1.80;1.70;;;;;;;;;;4951212;29;20425;-74
2024/01/22 13:31:55;;;;;;;4.00;1.70;;;;;;;;;;4942600;29;20749;-73
2024/01/22 13:34:21;;;;;;;1.17;0.87;;;;;;;;;;4950883;29;20424;-75
2024/01/22 13:36:47;;;;;;;0.80;0.70;;;;;;;;;;4956444;28;20828;-74
2024/01/22 13:39:13;;;;;;;1.67;1.20;;;;;;;;;;4956169;28;20417;-77
2024/01/22 13:41:39;;;;;;;1.43;1.00;;;;;;;;;;4953746;28;20407;-73
2024/01/22 13:44:12;;;;;;;2.47;1.20;;;;;;;;;;4957280;28;20416;-75
2024/01/22 13:46:38;;;;;;;4.10;1.80;;;;;;;;;;4957395;28;20436;-75
2024/01/22 13:49:05;;;;;;;2.43;1.20;;;;;;;;;;4955267;28;20427;-75
2024/01/22 13:51:31;;;;;;;0.90;0.80;;;;;;;;;;4943246;29;20427;-73
2024/01/22 13:53:57;;;;;;;1.53;1.43;;;;;;;;;;4956663;28;20424;-72
2024/01/22 13:56:23;;;;;;;1.20;1.03;;;;;;;;;;4939863;28;20506;-72
2024/01/22 13:58:49;;;;;;;1.47;1.03;;;;;;;;;;4937634;29;20889;-72
2024/01/22 14:01:15;;;;;;;3.70;1.23;;;;;;;;;;4937968;29;20410;-74
2024/01/22 14:03:42;;;;;;;0.90;0.90;;;;;;;;;;4938128;29;20469;-72
2024/01/22 14:06:08;;;;;;;1.47;1.10;;;;;;;;;;4937657;29;20958;-73
2024/01/22 14:08:34;;;;;;;1.03;1.00;;;;;;;;;;4939592;29;20472;-72
2024/01/22 14:11:00;;;;;;;1.67;1.10;;;;;;;;;;4941297;29;20987;-72
2024/01/22 14:13:26;;;;;;;2.57;1.17;;;;;;;;;;4938932;29;20500;-72
2024/01/22 14:15:53;;;;;;;1.53;1.20;;;;;;;;;;4937623;29;20504;-74
2024/01/22 14:18:19;;;;;;;3.93;0.90;;;;;;;;;;4937485;29;20450;-72
2024/01/22 14:20:49;;;;;;;0.97;0.97;;;;;;;;;;4937583;29;20410;-73
2024/01/22 14:23:16;;;;;;;1.10;1.00;;;;;;;;;;4937936;29;20425;-71
2024/01/22 14:25:42;;;;;;;4.30;1.00;;;;;;;;;;4937411;29;20436;-72
2024/01/22 14:28:08;;;;;;;8.00;3.97;;;;;;;;;;4950473;29;20515;-72
2024/01/22 14:30:34;;;;;;;1.00;0.90;;;;;;;;;;4957204;28;20495;-72
2024/01/22 14:33:00;;;;;;;1.83;1.20;;;;;;;;;;4957256;28;20409;-73
2024/01/22 14:35:27;;;;;;;1.37;1.30;;;;;;;;;;4957171;28;20429;-73
2024/01/22 14:37:53;;;;;;;1.40;1.30;;;;;;;;;;4957221;28;20416;-73
2024/01/22 14:40:19;;;;;;;1.03;0.93;;;;;;;;;;4957294;28;20762;-73
2024/01/22 14:42:47;;;;;;;1.63;1.10;;;;;;;;;;4956205;28;20449;-73
2024/01/22 14:45:13;;;;;;;1.37;1.20;;;;;;;;;;4956066;28;20962;-73
2024/01/22 14:47:43;;;;;;;1.90;1.37;;;;;;;;;;4955994;28;20489;-73
2024/01/22 14:50:09;;;;;;;4.80;1.13;;;;;;;;;;4956254;28;20412;-72
2024/01/22 14:52:35;;;;;;;1.57;1.23;;;;;;;;;;4956157;28;20520;-73
2024/01/22 14:55:01;;;;;;;1.47;1.03;;;;;;;;;;4956087;28;20437;-73
2024/01/22 14:57:27;;;;;;;1.70;1.23;;;;;;;;;;4955940;28;20415;-73
2024/01/22 14:59:53;;;;;;;1.30;1.20;;;;;;;;;;4956242;28;20832;-73
2024/01/22 15:02:21;;;;;;;2.33;1.13;;;;;;;;;;4956021;28;20439;-72
2024/01/22 15:04:48;;;;;;;2.93;1.57;;;;;;;;;;4955837;28;20409;-73
2024/01/22 15:07:14;;;;;;;2.20;1.60;;;;;;;;;;4955575;28;20455;-74
2024/01/22 15:09:40;;;;;;;1.47;1.07;;;;;;;;;;4955809;28;20416;-73
2024/01/22 15:12:06;;;;;;;1.23;1.13;;;;;;;;;;4956290;28;20929;-72
2024/01/22 15:14:32;;;;;;;1.03;1.00;;;;;;;;;;4960004;28;20413;-72
2024/01/22 15:17:01;;;;;;;1.23;1.10;;;;;;;;;;4959223;28;20791;-73
2024/01/22 15:19:27;;;;;;;1.97;1.00;;;;;;;;;;4956495;28;20425;-73
2024/01/22 15:21:53;;;;;;;1.10;1.00;;;;;;;;;;4955599;28;20420;-73
2024/01/22 15:24:20;;;;;;;1.87;1.30;;;;;;;;;;4954469;28;20419;-74
2024/01/22 15:26:46;;;;;;;1.70;1.40;;;;;;;;;;4955281;28;20436;-72
2024/01/22 15:29:12;;;;;;;2.87;2.03;;;;;;;;;;4955303;28;20416;-73
2024/01/22 15:31:39;;;;;;;2.23;0.83;;;;;;;;;;4954171;28;20419;-72
2024/01/22 15:34:05;;;;;;;1.37;1.17;;;;;;;;;;4955712;28;20844;-73
2024/01/22 15:36:31;;;;;;;2.33;1.70;;;;;;;;;;4956679;28;20433;-72
2024/01/22 15:39:01;;;;;;;3.40;1.50;;;;;;;;;;4955651;28;20504;-73
2024/01/22 15:41:26;;;;;;;6.67;2.17;;;;;;;;;;4955308;28;20471;-73
2024/01/22 15:43:54;;;;;;;2.00;1.30;;;;;;;;;;4954768;28;20796;-73
2024/01/22 15:46:20;;;;;;;1.53;1.43;;;;;;;;;;4955094;28;20524;-73
2024/01/22 15:48:46;;;;;;;2.27;1.30;;;;;;;;;;4954855;28;21051;-73
2024/01/22 15:51:12;;;;;;;2.50;1.33;;;;;;;;;;4955220;28;20449;-73
2024/01/22 15:53:38;;;;;;;1.97;1.47;;;;;;;;;;4955125;28;20500;-73
2024/01/22 15:56:04;;;;;;;2.00;1.30;;;;;;;;;;4954812;28;20441;-72
2024/01/22 15:58:30;;;;;;;1.57;1.27;;;;;;;;;;4954950;28;20601;-74
2024/01/22 16:00:57;;;;;;;1.57;1.53;;;;;;;;;;4955039;28;20412;-73
2024/01/22 16:03:24;;;;;;;2.77;1.40;;;;;;;;;;4954639;28;20834;-73
2024/01/22 16:05:50;;;;;;;1.37;1.13;;;;;;;;;;4954774;28;20971;-72
2024/01/22 16:08:16;;;;;;;2.23;1.43;;;;;;;;;;4954560;28;20472;-72
2024/01/22 16:10:42;;;;;;;1.40;1.20;;;;;;;;;;4954715;28;20714;-72
2024/01/22 16:13:08;;;;;;;3.13;1.73;;;;;;;;;;4954732;28;20499;-72
2024/01/22 16:15:34;;;;;;;1.93;1.20;;;;;;;;;;4954585;28;20487;-72
2024/01/22 16:18:00;;;;;;;3.00;2.13;;;;;;;;;;4954320;28;20423;-72
2024/01/22 16:20:26;;;;;;;1.70;1.30;;;;;;;;;;4954817;28;20416;-73
2024/01/22 16:22:52;;;;;;;1.57;1.47;;;;;;;;;;4954957;28;20802;-73
2024/01/22 16:25:18;;;;;;;4.13;3.10;;;;;;;;;;4954799;28;21018;-73
2024/01/22 16:27:45;;;;;;;2.93;1.63;;;;;;;;;;4954375;28;20641;-73
2024/01/22 16:30:11;;;;;;;2.10;1.50;;;;;;;;;;4954608;28;20472;-73
2024/01/22 16:32:37;;;;;;;3.00;2.23;;;;;;;;;;4954447;28;20417;-73
2024/01/22 16:35:03;;;;;;;3.07;1.70;;;;;;;;;;4954270;28;20447;-74
2024/01/22 16:37:29;;;;;;;2.67;2.00;;;;;;;;;;4954086;28;20416;-73
2024/01/22 16:39:56;;;;;;;3.80;1.60;;;;;;;;;;4954313;28;20423;-73
2024/01/22 16:42:22;;;;;;;7.40;1.57;;;;;;;;;;4954395;28;20971;-72
2024/01/22 16:44:48;;;;;;;6.37;1.80;;;;;;;;;;4954235;28;20447;-72
2024/01/22 16:47:14;;;;;;;6.33;2.07;;;;;;;;;;4953976;28;20476;-73
2024/01/22 16:49:41;;;;;;;1.53;1.43;;;;;;;;;;4954372;28;20408;-73
2024/01/22 16:52:08;;;;;;;5.00;1.80;;;;;;;;;;4954081;28;20416;-73
2024/01/22 16:54:33;;;;;;;2.20;1.40;;;;;;;;;;4952943;28;20464;-73
2024/01/22 16:56:59;;;;;;;1.80;1.23;;;;;;;;;;4954076;28;20416;-74
2024/01/22 16:59:25;;;;;;;4.40;1.93;;;;;;;;;;4954476;28;20451;-74
2024/01/22 17:01:56;;;;;;;4.47;1.40;;;;;;;;;;4953882;28;20412;-72
2024/01/22 17:04:25;;;;;;;1.10;1.00;;;;;;;;;;4954171;28;20409;-72
2024/01/22 17:06:51;;;;;;;3.03;1.30;;;;;;;;;;4953690;28;20473;-72
2024/01/22 17:09:17;;;;;;;2.10;1.10;;;;;;;;;;4954034;28;20417;-73
2024/01/22 17:11:43;;;;;;;2.50;1.10;;;;;;;;;;4954062;28;20409;-73
2024/01/22 17:14:09;;;;;;;2.60;1.20;;;;;;;;;;4954082;28;20409;-74
2024/01/22 17:16:35;;;;;;;1.10;1.10;;;;;;;;;;4953762;28;20452;-74
2024/01/22 17:19:01;;;;;;;2.93;1.13;;;;;;;;;;4954238;28;20420;-72
2024/01/22 17:21:27;;;;;;;1.43;0.70;;;;;;;;;;4954065;28;20789;-72
2024/01/22 17:23:53;;;;;;;2.17;0.90;;;;;;;;;;4954014;28;20417;-72
2024/01/22 17:26:19;;;;;;;3.70;1.30;;;;;;;;;;4953718;28;20429;-72
2024/01/22 17:28:45;;;;;;;1.07;0.97;;;;;;;;;;4953920;28;20472;-73
2024/01/22 17:31:11;;;;;;;1.67;1.07;;;;;;;;;;4953947;28;20408;-73
2024/01/22 17:33:37;;;;;;;2.33;1.00;;;;;;;;;;4953813;28;20472;-72
2024/01/22 17:36:05;;;;;;;1.33;1.03;;;;;;;;;;4954010;28;20436;-74
2024/01/22 17:38:34;;;;;;;9.67;1.23;;;;;;;;;;4953907;28;20475;-72
2024/01/22 17:41:00;;;;;;;1.60;0.97;;;;;;;;;;4953655;28;20423;-74
2024/01/22 17:43:25;;;;;;;1.87;0.80;;;;;;;;;;4953516;28;20720;-72
2024/01/22 17:45:51;;;;;;;1.63;0.90;;;;;;;;;;4941258;28;20441;-75
2024/01/22 17:48:17;;;;;;;0.93;0.80;;;;;;;;;;4953635;29;20978;-74
2024/01/22 17:50:43;;;;;;;2.80;0.80;;;;;;;;;;4954191;28;20934;-75
2024/01/22 17:53:09;;;;;;;0.90;0.80;;;;;;;;;;4940201;28;20897;-76
2024/01/22 17:55:35;;;;;;;1.20;1.07;;;;;;;;;;4934832;29;20933;-75
2024/01/22 17:58:01;;;;;;;2.87;0.90;;;;;;;;;;4941109;29;20427;-75
2024/01/22 18:00:27;;;;;;;1.33;1.10;;;;;;;;;;4939370;28;20573;-76
2024/01/22 18:02:53;;;;;;;3.13;0.90;;;;;;;;;;4934791;29;20410;-76
2024/01/22 18:05:19;;;;;;;1.47;1.30;;;;;;;;;;4935543;29;20437;-74
2024/01/22 18:07:45;;;;;;;3.27;1.00;;;;;;;;;;4935809;29;20881;-74
2024/01/22 18:10:14;;;;;;;1.10;0.90;;;;;;;;;;4945878;28;20412;-74
2024/01/22 18:12:40;;;;;;;1.53;1.00;;;;;;;;;;4934622;29;20505;-74
2024/01/22 18:15:06;;;;;;;4.73;1.47;;;;;;;;;;4942694;28;20874;-71
2024/01/22 18:17:32;;;;;;;1.03;0.93;;;;;;;;;;4950473;28;20468;-71
2024/01/22 18:19:58;;;;;;;2.10;1.53;;;;;;;;;;4949384;28;20432;-72
2024/01/22 18:22:24;;;;;;;2.60;1.63;;;;;;;;;;4951699;28;20421;-69
2024/01/22 18:24:50;;;;;;;3.10;1.63;;;;;;;;;;4949184;28;20445;-69
2024/01/22 18:27:16;;;;;;;3.30;1.73;;;;;;;;;;4952106;28;20968;-71
2024/01/22 18:29:42;;;;;;;4.93;2.03;;;;;;;;;;4970049;28;20506;-70
2024/01/22 18:32:08;;;;;;;3.50;1.60;;;;;;;;;;4958449;28;20444;-73
2024/01/22 18:34:34;;;;;;;1.87;1.20;;;;;;;;;;4952309;28;20897;-71
2024/01/22 18:37:01;;;;;;;2.17;1.20;;;;;;;;;;4956860;28;20563;-69
2024/01/22 18:39:27;;;;;;;2.50;1.20;;;;;;;;;;4954316;28;20432;-71
2024/01/22 18:41:54;;;;;;;3.03;1.50;;;;;;;;;;4949957;29;20419;-71
2024/01/22 18:44:20;;;;;;;3.63;1.60;;;;;;;;;;4949873;28;20433;-71
2024/01/22 18:46:46;;;;;;;1.10;1.10;;;;;;;;;;4947167;29;20556;-71
2024/01/22 18:49:12;;;;;;;2.30;1.40;;;;;;;;;;4946885;28;20440;-71
2024/01/22 18:51:38;;;;;;;1.17;1.10;;;;;;;;;;4949612;29;20491;-70
2024/01/22 18:54:04;;;;;;;2.40;1.63;;;;;;;;;;4947480;29;20508;-71
2024/01/22 18:56:32;;;;;;;2.37;1.30;;;;;;;;;;4946757;28;20444;-71
2024/01/22 18:58:58;;;;;;;1.90;1.23;;;;;;;;;;4950136;29;20452;-71
2024/01/22 19:01:27;;;;;;;4.10;1.60;;;;;;;;;;4948807;28;20416;-70
2024/01/22 19:03:53;;;;;;;4.40;1.80;;;;;;;;;;4949961;29;20916;-71
2024/01/22 19:06:19;;;;;;;2.80;1.90;;;;;;;;;;4949315;29;20432;-71
2024/01/22 19:08:46;;;;;;;7.43;1.73;;;;;;;;;;4945295;29;20480;-72
2024/01/22 19:11:11;;;;;;;2.10;1.43;;;;;;;;;;4951332;28;20868;-73
2024/01/22 19:13:40;;;;;;;3.27;2.33;;;;;;;;;;4953341;28;20452;-73
2024/01/22 19:16:07;;;;;;;3.03;1.60;;;;;;;;;;4965806;28;20455;-73
2024/01/22 19:18:33;;;;;;;2.20;1.30;;;;;;;;;;4964857;28;20476;-73
2024/01/22 19:20:59;;;;;;;1.57;1.40;;;;;;;;;;4964470;28;20472;-72
2024/01/22 19:23:25;;;;;;;2.07;1.40;;;;;;;;;;4963358;28;20456;-73
2024/01/22 19:25:51;;;;;;;2.77;1.60;;;;;;;;;;4965751;28;20799;-72
2024/01/22 19:28:17;;;;;;;4.73;1.83;;;;;;;;;;4962587;28;20835;-73
2024/01/22 19:30:43;;;;;;;3.20;1.80;;;;;;;;;;4972696;28;20782;-73
2024/01/22 19:33:09;;;;;;;2.57;1.53;;;;;;;;;;4955775;28;20432;-72
2024/01/22 19:35:35;;;;;;;5.40;2.43;;;;;;;;;;4955839;28;20803;-73
2024/01/22 19:38:01;;;;;;;3.80;1.70;;;;;;;;;;4955712;28;20413;-73
2024/01/22 19:40:27;;;;;;;1.50;1.40;;;;;;;;;;4955363;28;20804;-73
2024/01/22 19:42:53;;;;;;;3.17;1.53;;;;;;;;;;4956211;28;20847;-73
2024/01/22 19:45:19;;;;;;;6.33;2.40;;;;;;;;;;4956092;28;20436;-72
2024/01/22 19:47:45;;;;;;;2.90;1.73;;;;;;;;;;4950169;28;20496;-73
2024/01/22 19:50:11;;;;;;;3.53;1.87;;;;;;;;;;4955358;28;20970;-74
2024/01/22 19:52:37;;;;;;;2.70;1.60;;;;;;;;;;4954401;28;20408;-74
2024/01/22 19:55:03;;;;;;;1.70;1.60;;;;;;;;;;4955136;28;20525;-73
2024/01/22 19:57:29;;;;;;;2.23;1.40;;;;;;;;;;4952844;28;20420;-74
2024/01/22 19:59:55;;;;;;;2.07;1.60;;;;;;;;;;4949079;29;20460;-73
2024/01/22 20:02:21;;;;;;;2.50;1.60;;;;;;;;;;4954799;28;20515;-75
2024/01/22 20:04:47;;;;;;;2.50;1.47;;;;;;;;;;4951505;28;20468;-73
2024/01/22 20:07:13;;;;;;;2.00;1.30;;;;;;;;;;4947703;28;20922;-74
2024/01/22 20:09:39;;;;;;;2.40;1.40;;;;;;;;;;4952026;28;20430;-73
2024/01/22 20:12:05;;;;;;;4.53;2.00;;;;;;;;;;4948398;28;20418;-73
2024/01/22 20:14:31;;;;;;;2.83;1.93;;;;;;;;;;4954820;28;20417;-74
2024/01/22 20:16:57;;;;;;;2.57;1.50;;;;;;;;;;4954420;28;20441;-73
2024/01/22 20:19:23;;;;;;;6.10;1.77;;;;;;;;;;4952291;28;20425;-73
2024/01/22 20:21:49;;;;;;;3.10;1.63;;;;;;;;;;4954522;28;20420;-73
2024/01/22 20:24:17;;;;;;;2.10;1.50;;;;;;;;;;4954857;28;20515;-74
2024/01/22 20:26:45;;;;;;;1.80;1.70;;;;;;;;;;4954085;28;20448;-74
2024/01/22 20:29:11;;;;;;;2.90;1.80;;;;;;;;;;4954325;28;20439;-73
2024/01/22 20:31:37;;;;;;;1.63;1.50;;;;;;;;;;4953427;28;20880;-73
2024/01/22 20:34:03;;;;;;;5.30;1.83;;;;;;;;;;4954588;28;20432;-73
2024/01/22 20:36:29;;;;;;;9.73;1.60;;;;;;;;;;4953533;28;20940;-74
2024/01/22 20:38:55;;;;;;;4.20;1.50;;;;;;;;;;4954835;28;20429;-73
2024/01/22 20:41:21;;;;;;;4.37;2.00;;;;;;;;;;4948060;28;20433;-74